Time;durP1;ratioP1;P1;durP2;ratioP2;P2;SDS_P1;SDS_P2;PMS_P1;PMS_P2;Temp;Humidity;BMP_temperature;BMP_pressure;BME280_temperature;BME280_humidity;BME280_pressure;Samples;Min_cycle;Max_cycle;Signal;HPM_P1;HPM_P2
2022/02/20 00:00:26;;;;;;;5.30;0.30;;;6.80;84.20;;;;;;10383614;28;20583;-63
2022/02/20 00:05:28;;;;;;;1.13;0.30;;;6.70;84.90;;;;;;10392247;28;20106;-63
2022/02/20 00:10:30;;;;;;;1.67;0.20;;;6.70;85.70;;;;;;10392261;28;20136;-63
2022/02/20 00:15:33;;;;;;;2.35;0.55;;;6.70;86.50;;;;;;10384435;28;20638;-63
2022/02/20 00:20:34;;;;;;;1.05;0.30;;;6.70;87.10;;;;;;10390297;28;20103;-63
2022/02/20 00:25:37;;;;;;;2.95;0.20;;;6.70;87.70;;;;;;10386897;28;20080;-63
2022/02/20 00:30:39;;;;;;;2.65;0.30;;;6.70;88.50;;;;;;10384143;28;20434;-63
2022/02/20 00:35:41;;;;;;;3.20;0.22;;;6.70;89.30;;;;;;10387249;28;20057;-63
2022/02/20 00:40:43;;;;;;;5.15;0.70;;;6.70;89.80;;;;;;10386796;28;20471;-63
2022/02/20 00:45:45;;;;;;;3.70;0.40;;;6.80;90.10;;;;;;10385280;28;20046;-63
2022/02/20 00:50:48;;;;;;;4.53;0.30;;;6.70;90.30;;;;;;10385249;28;20586;-64
2022/02/20 00:55:50;;;;;;;4.38;0.38;;;6.80;90.50;;;;;;10383429;28;20050;-63
2022/02/20 01:00:51;;;;;;;2.95;0.30;;;6.80;90.30;;;;;;10381415;28;20421;-62
2022/02/20 01:05:53;;;;;;;4.00;0.30;;;6.80;90.40;;;;;;10389218;28;20048;-63
2022/02/20 01:10:55;;;;;;;2.35;0.38;;;6.90;90.20;;;;;;10383976;28;20134;-63
2022/02/20 01:15:57;;;;;;;3.28;0.40;;;6.90;90.30;;;;;;10388554;28;20069;-63
2022/02/20 01:20:59;;;;;;;2.53;0.30;;;6.90;90.50;;;;;;10383548;28;20061;-63
2022/02/20 01:26:00;;;;;;;0.85;0.73;;;6.90;90.40;;;;;;10382759;28;20665;-62
2022/02/20 01:31:02;;;;;;;3.13;0.22;;;6.90;90.80;;;;;;10382713;28;20041;-63
2022/02/20 01:36:04;;;;;;;2.33;0.30;;;6.90;90.90;;;;;;10382268;28;20076;-62
2022/02/20 01:41:06;;;;;;;3.35;1.00;;;7.00;91.10;;;;;;10380347;28;20601;-63
2022/02/20 01:46:08;;;;;;;2.78;0.43;;;7.00;91.60;;;;;;10385232;28;20084;-63
2022/02/20 01:51:09;;;;;;;1.05;0.35;;;7.00;92.10;;;;;;10385602;28;20135;-63
2022/02/20 01:56:11;;;;;;;3.50;0.40;;;7.00;93.00;;;;;;10380931;28;20073;-63
2022/02/20 02:01:13;;;;;;;2.33;0.20;;;7.00;94.00;;;;;;10384488;28;20094;-63
2022/02/20 02:06:15;;;;;;;1.85;0.20;;;7.00;94.50;;;;;;10384505;28;20734;-62
2022/02/20 02:11:17;;;;;;;6.07;0.40;;;7.00;95.60;;;;;;10387850;28;20081;-62
2022/02/20 02:16:23;;;;;;;2.95;0.57;;;7.00;97.20;;;;;;10396906;28;20044;-62
2022/02/20 02:21:24;;;;;;;5.80;0.40;;;6.90;99.90;;;;;;10386826;28;20166;-62
2022/02/20 02:26:27;;;;;;;5.43;0.30;;;6.70;99.90;;;;;;10383339;28;20080;-62
2022/02/20 02:31:29;;;;;;;2.60;0.20;;;6.80;99.90;;;;;;10383524;28;20111;-63
2022/02/20 02:36:31;;;;;;;2.03;0.30;;;6.70;99.90;;;;;;10382124;28;20077;-63
2022/02/20 02:41:32;;;;;;;1.70;0.20;;;6.60;99.90;;;;;;10379732;28;20077;-62
2022/02/20 02:46:34;;;;;;;2.95;0.60;;;6.60;99.90;;;;;;10386986;28;20053;-63
2022/02/20 02:51:37;;;;;;;3.78;0.30;;;6.60;99.90;;;;;;10382596;28;20053;-63
2022/02/20 02:56:39;;;;;;;4.95;0.40;;;6.60;99.90;;;;;;10387441;28;20111;-63
2022/02/20 03:01:42;;;;;;;0.82;0.20;;;6.60;99.90;;;;;;10390076;28;20182;-64
2022/02/20 03:06:43;;;;;;;2.83;0.30;;;6.60;99.90;;;;;;10393377;28;20121;-64
2022/02/20 03:11:48;;;;;;;1.00;0.20;;;6.60;99.90;;;;;;10387539;28;20060;-64
2022/02/20 03:16:50;;;;;;;2.42;0.30;;;6.60;99.90;;;;;;10383761;28;20053;-63
2022/02/20 03:21:52;;;;;;;3.97;0.57;;;6.60;99.90;;;;;;10386417;28;20539;-63
2022/02/20 03:26:53;;;;;;;3.90;0.17;;;6.50;99.90;;;;;;10388601;28;20073;-63
2022/02/20 03:31:55;;;;;;;2.75;0.20;;;6.50;99.90;;;;;;10390803;28;20592;-63
2022/02/20 03:36:57;;;;;;;0.98;0.20;;;6.50;99.90;;;;;;10387807;28;20045;-63
2022/02/20 03:41:58;;;;;;;7.13;0.38;;;6.50;99.90;;;;;;10385931;28;20542;-63
2022/02/20 03:47:00;;;;;;;0.57;0.17;;;6.50;99.90;;;;;;10388793;28;20053;-63
2022/02/20 03:52:02;;;;;;;2.35;0.22;;;6.50;99.90;;;;;;10390722;28;20049;-64
2022/02/20 03:57:04;;;;;;;4.35;0.30;;;6.50;99.90;;;;;;10389126;28;20037;-64
2022/02/20 04:02:06;;;;;;;0.80;0.30;;;6.50;99.90;;;;;;10389048;28;20139;-64
2022/02/20 04:07:07;;;;;;;2.47;0.30;;;6.40;99.90;;;;;;10390690;28;20144;-64
2022/02/20 04:12:09;;;;;;;4.15;0.20;;;6.40;99.90;;;;;;10384553;28;20076;-64
2022/02/20 04:17:11;;;;;;;5.65;0.40;;;6.50;99.90;;;;;;10384974;28;20049;-64
2022/02/20 04:22:12;;;;;;;2.75;0.20;;;6.60;99.90;;;;;;10390511;28;20049;-64
2022/02/20 04:27:14;;;;;;;1.35;0.20;;;6.60;99.90;;;;;;10391069;28;20084;-64
2022/02/20 04:32:16;;;;;;;5.45;0.28;;;6.60;99.90;;;;;;10388479;28;20110;-65
2022/02/20 04:37:18;;;;;;;2.70;0.50;;;6.60;99.90;;;;;;10389617;28;20076;-64
2022/02/20 04:42:19;;;;;;;0.85;0.10;;;6.60;99.90;;;;;;10383334;28;21131;-65
2022/02/20 04:47:21;;;;;;;8.18;0.30;;;6.60;99.90;;;;;;10382894;28;20049;-64
2022/02/20 04:52:22;;;;;;;0.60;0.20;;;6.60;99.90;;;;;;10387706;28;20115;-64
2022/02/20 04:57:24;;;;;;;0.75;0.10;;;6.60;99.90;;;;;;10386396;28;20064;-65
2022/02/20 05:02:28;;;;;;;3.60;0.30;;;6.60;99.90;;;;;;10382453;28;20079;-63
2022/02/20 05:07:31;;;;;;;3.35;0.20;;;6.60;99.90;;;;;;10386013;28;20077;-63
2022/02/20 05:12:33;;;;;;;1.42;0.20;;;6.70;99.90;;;;;;10384564;28;20057;-63
2022/02/20 05:17:38;;;;;;;4.28;0.65;;;6.70;99.90;;;;;;10383997;28;20099;-63
2022/02/20 05:22:40;;;;;;;2.13;0.55;;;6.70;99.90;;;;;;10387464;28;20435;-63
2022/02/20 05:27:42;;;;;;;3.92;0.20;;;6.70;99.90;;;;;;10386714;28;20493;-63
2022/02/20 05:32:44;;;;;;;2.20;0.10;;;6.70;99.90;;;;;;10386521;28;20049;-64
2022/02/20 05:37:50;;;;;;;0.50;0.20;;;6.80;99.90;;;;;;10386401;28;20089;-63
2022/02/20 05:42:54;;;;;;;4.40;0.30;;;6.80;99.90;;;;;;10385296;28;20045;-63
2022/02/20 05:47:55;;;;;;;4.60;0.20;;;6.80;99.90;;;;;;10379386;28;20049;-63
2022/02/20 05:52:57;;;;;;;2.35;0.22;;;6.80;99.90;;;;;;10383433;28;20087;-63
2022/02/20 05:57:59;;;;;;;5.13;0.40;;;6.70;99.90;;;;;;10382018;28;20065;-63
2022/02/20 06:03:01;;;;;;;2.50;0.20;;;6.70;99.90;;;;;;10379244;28;20062;-63
2022/02/20 06:08:02;;;;;;;3.65;0.17;;;6.70;99.90;;;;;;10378600;28;20049;-63
2022/02/20 06:13:04;;;;;;;2.88;0.30;;;6.70;99.90;;;;;;10384272;28;20176;-63
2022/02/20 06:18:06;;;;;;;4.10;0.22;;;6.70;99.90;;;;;;10387898;28;20365;-63
2022/02/20 06:23:07;;;;;;;1.65;0.30;;;6.70;99.90;;;;;;10381835;28;20107;-63
2022/02/20 06:28:09;;;;;;;2.50;0.55;;;6.60;99.90;;;;;;10382400;28;20463;-68
2022/02/20 06:33:11;;;;;;;2.05;0.25;;;6.60;99.90;;;;;;10382936;28;20111;-68
2022/02/20 06:38:12;;;;;;;3.65;0.20;;;6.60;99.90;;;;;;10381286;28;20049;-68
2022/02/20 06:43:14;;;;;;;4.10;0.28;;;6.60;99.90;;;;;;10398854;28;20105;-69
2022/02/20 06:48:16;;;;;;;1.35;0.22;;;6.60;99.90;;;;;;10384041;28;20450;-68
2022/02/20 06:53:17;;;;;;;2.22;0.30;;;6.70;99.90;;;;;;10393249;28;20045;-68
2022/02/20 06:58:19;;;;;;;3.22;0.30;;;6.70;99.90;;;;;;10386545;28;20136;-68
2022/02/20 07:03:21;;;;;;;1.65;0.85;;;6.70;99.90;;;;;;10379555;28;20055;-68
2022/02/20 07:08:23;;;;;;;1.85;0.30;;;6.80;99.90;;;;;;10386845;28;20045;-68
2022/02/20 07:13:24;;;;;;;2.83;0.35;;;6.90;99.90;;;;;;10382326;28;20053;-68
2022/02/20 07:18:26;;;;;;;4.82;0.40;;;7.00;99.90;;;;;;10386318;28;20077;-68
2022/02/20 07:23:28;;;;;;;4.10;0.60;;;7.00;99.90;;;;;;10379686;28;20056;-69
2022/02/20 07:28:29;;;;;;;3.15;0.50;;;7.10;99.90;;;;;;10379051;28;20045;-68
2022/02/20 07:33:31;;;;;;;2.67;0.80;;;7.10;99.90;;;;;;10383201;28;20049;-68
2022/02/20 07:38:33;;;;;;;3.05;0.60;;;7.20;99.90;;;;;;10386565;28;20107;-68
2022/02/20 07:43:34;;;;;;;6.60;1.15;;;7.20;99.90;;;;;;10381861;28;20100;-68
2022/02/20 07:48:36;;;;;;;7.65;1.05;;;7.20;99.90;;;;;;10388393;28;20480;-68
2022/02/20 07:53:41;;;;;;;4.90;1.42;;;7.20;99.90;;;;;;10391162;28;20077;-68
2022/02/20 07:58:43;;;;;;;5.85;2.65;;;7.20;99.90;;;;;;10388096;28;20049;-68
2022/02/20 08:03:45;;;;;;;3.50;0.60;;;7.20;99.90;;;;;;10389051;28;20046;-68
2022/02/20 08:08:47;;;;;;;4.55;1.25;;;7.20;99.90;;;;;;10387662;28;20056;-68
2022/02/20 08:13:48;;;;;;;2.83;0.98;;;7.20;99.90;;;;;;10386869;28;20480;-68
2022/02/20 08:18:50;;;;;;;4.75;0.80;;;7.20;99.90;;;;;;10386340;28;20115;-68
2022/02/20 08:23:52;;;;;;;3.80;0.70;;;7.20;99.90;;;;;;10382399;28;20056;-67
2022/02/20 08:28:53;;;;;;;7.57;1.23;;;7.20;99.90;;;;;;10388503;28;20107;-67
2022/02/20 08:33:55;;;;;;;2.28;0.60;;;7.10;99.90;;;;;;10387659;28;20053;-67
2022/02/20 08:38:57;;;;;;;4.35;0.65;;;7.10;99.90;;;;;;10383630;28;20554;-67
2022/02/20 08:43:58;;;;;;;5.72;0.90;;;7.00;99.90;;;;;;10389980;28;20085;-67
2022/02/20 08:49:00;;;;;;;3.47;0.70;;;7.00;99.90;;;;;;10384011;28;20123;-66
2022/02/20 08:54:02;;;;;;;5.18;0.80;;;7.00;99.90;;;;;;10384651;28;20099;-65
2022/02/20 08:59:04;;;;;;;3.33;0.70;;;7.00;99.90;;;;;;10386125;28;20495;-65
2022/02/20 09:04:05;;;;;;;8.88;1.08;;;7.00;99.90;;;;;;10381835;28;20105;-65
2022/02/20 09:09:07;;;;;;;2.60;0.60;;;7.00;99.90;;;;;;10389344;28;20060;-65
2022/02/20 09:14:09;;;;;;;4.35;1.33;;;7.00;99.90;;;;;;10383486;28;20119;-64
2022/02/20 09:19:10;;;;;;;11.65;1.10;;;7.00;99.90;;;;;;10382385;28;20060;-65
2022/02/20 09:24:12;;;;;;;9.02;1.30;;;6.90;99.90;;;;;;10384082;28;20061;-65
2022/02/20 09:29:14;;;;;;;4.18;0.57;;;7.00;99.90;;;;;;10380915;28;20050;-66
2022/02/20 09:34:16;;;;;;;2.47;0.52;;;7.00;99.90;;;;;;10384099;28;20056;-66
2022/02/20 09:39:18;;;;;;;2.47;0.95;;;7.00;99.90;;;;;;10382924;28;20567;-65
2022/02/20 09:44:20;;;;;;;4.68;0.60;;;7.00;99.90;;;;;;10387206;28;20056;-64
2022/02/20 09:49:29;;;;;;;1.73;0.60;;;7.00;99.90;;;;;;10382907;28;20041;-66
2022/02/20 09:54:31;;;;;;;4.82;0.70;;;7.10;99.90;;;;;;10384638;28;20084;-66
2022/02/20 09:59:33;;;;;;;3.40;0.60;;;7.10;99.90;;;;;;10382274;28;20126;-66
2022/02/20 10:04:36;;;;;;;3.42;0.50;;;7.20;99.90;;;;;;10379509;28;20048;-66
2022/02/20 10:09:38;;;;;;;2.33;1.00;;;7.20;99.90;;;;;;10380419;28;20110;-66
2022/02/20 10:14:40;;;;;;;7.15;0.40;;;7.20;99.90;;;;;;10381822;28;20049;-69
2022/02/20 10:19:56;;;;;;;5.05;0.50;;;7.20;99.90;;;;;;10380381;28;20144;-69
2022/02/20 10:25:09;;;;;;;3.42;0.55;;;7.30;99.90;;;;;;10376157;28;20113;-69
2022/02/20 10:30:19;;;;;;;1.83;0.75;;;7.30;99.90;;;;;;10378966;28;20049;-69
2022/02/20 10:35:20;;;;;;;2.78;0.40;;;7.40;99.90;;;;;;10381544;28;20056;-69
2022/02/20 10:40:29;;;;;;;6.55;0.60;;;7.40;99.90;;;;;;10386092;28;20049;-69
2022/02/20 10:45:39;;;;;;;1.92;0.40;;;7.50;99.90;;;;;;10376727;28;20503;-70
2022/02/20 10:50:42;;;;;;;7.03;0.65;;;7.60;99.90;;;;;;10396068;28;20103;-70
2022/02/20 10:55:47;;;;;;;3.15;0.70;;;7.70;99.90;;;;;;10378393;28;20053;-70
2022/02/20 11:00:54;;;;;;;4.20;3.55;;;7.80;99.90;;;;;;10326092;28;20057;-71
2022/02/20 11:05:58;;;;;;;8.70;1.45;;;7.90;99.90;;;;;;10247797;28;20053;-71
2022/02/20 11:11:36;;;;;;;3.03;0.45;;;7.90;99.90;;;;;;10379031;28;20512;-72
2022/02/20 11:16:24;;;;;;;3.95;0.65;;;7.90;99.90;;;;;;10373533;28;20056;-73
2022/02/20 11:21:26;;;;;;;0.45;0.30;;;7.90;99.90;;;;;;10398309;28;20127;-70
2022/02/20 11:26:30;;;;;;;3.60;0.40;;;8.00;99.90;;;;;;10384625;28;20054;-69
2022/02/20 11:31:33;;;;;;;2.95;0.30;;;8.10;99.90;;;;;;10374197;28;20083;-69
2022/02/20 11:36:35;;;;;;;2.53;0.30;;;8.10;99.90;;;;;;10388987;28;20476;-67
2022/02/20 11:41:39;;;;;;;1.30;0.20;;;8.10;99.90;;;;;;10388344;28;20087;-68
2022/02/20 11:46:52;;;;;;;0.90;0.28;;;8.10;99.90;;;;;;10391678;28;20057;-69
2022/02/20 11:51:58;;;;;;;1.20;0.30;;;8.20;99.90;;;;;;10397296;28;20053;-69
2022/02/20 11:57:12;;;;;;;0.70;0.20;;;8.20;99.90;;;;;;10390590;28;20049;-70
2022/02/20 12:02:14;;;;;;;1.42;0.20;;;8.30;99.90;;;;;;10386035;28;20056;-69
2022/02/20 12:07:43;;;;;;;0.82;0.17;;;8.30;99.90;;;;;;10385267;28;20072;-69
2022/02/20 12:12:48;;;;;;;1.75;0.20;;;8.30;99.90;;;;;;10383773;28;20530;-70
2022/02/20 12:18:01;;;;;;;0.98;0.20;;;8.30;99.90;;;;;;10388406;28;20045;-69
2022/02/20 12:23:09;;;;;;;0.50;0.10;;;8.30;99.90;;;;;;10402355;28;20060;-69
2022/02/20 12:28:13;;;;;;;0.15;0.10;;;8.40;99.90;;;;;;10389609;28;20084;-69
2022/02/20 12:33:35;;;;;;;0.65;0.10;;;8.40;99.90;;;;;;10386602;28;20416;-69
2022/02/20 12:38:47;;;;;;;0.28;0.10;;;8.30;99.90;;;;;;10383701;28;20073;-69
2022/02/20 12:43:50;;;;;;;0.52;0.10;;;8.20;99.90;;;;;;10385827;28;20049;-69
2022/02/20 12:48:53;;;;;;;1.42;0.40;;;8.10;99.90;;;;;;10385217;28;20080;-68
2022/02/20 12:53:54;;;;;;;0.25;0.10;;;8.10;99.90;;;;;;10385478;28;20542;-68
2022/02/20 12:59:03;;;;;;;0.20;0.10;;;8.20;99.90;;;;;;10384589;28;20499;-68
2022/02/20 13:04:05;;;;;;;0.00;0.00;;;8.30;99.90;;;;;;10382717;28;20161;-67
2022/02/20 13:09:07;;;;;;;0.50;0.10;;;8.30;99.90;;;;;;10389898;28;20045;-67
2022/02/20 13:14:12;;;;;;;0.90;0.10;;;8.40;99.90;;;;;;10382033;28;20053;-67
2022/02/20 13:19:13;;;;;;;2.10;0.00;;;8.40;99.90;;;;;;10378637;28;20550;-66
2022/02/20 13:24:18;;;;;;;0.00;0.00;;;8.40;99.90;;;;;;10382877;28;20068;-68
2022/02/20 13:29:20;;;;;;;0.20;0.10;;;8.50;99.90;;;;;;10387657;28;20049;-67
2022/02/20 13:34:22;;;;;;;0.30;0.10;;;8.40;99.90;;;;;;10383280;28;20120;-66
2022/02/20 13:39:24;;;;;;;0.57;0.10;;;8.40;99.90;;;;;;10385137;28;20103;-66
2022/02/20 13:44:28;;;;;;;0.10;0.10;;;8.30;99.90;;;;;;10385051;28;20111;-66
2022/02/20 13:49:30;;;;;;;0.10;0.00;;;8.30;99.90;;;;;;10381208;28;20492;-68
2022/02/20 13:54:37;;;;;;;0.22;0.10;;;8.40;99.90;;;;;;10380674;28;20060;-65
2022/02/20 13:59:38;;;;;;;0.77;0.10;;;8.30;99.90;;;;;;10377677;28;20115;-68
2022/02/20 14:04:48;;;;;;;0.47;0.13;;;8.20;99.90;;;;;;10385707;28;20045;-68
2022/02/20 14:10:00;;;;;;;0.35;0.20;;;8.20;99.90;;;;;;10384747;28;20132;-68
2022/02/20 14:15:11;;;;;;;0.40;0.10;;;8.30;99.90;;;;;;10387026;28;20077;-67
2022/02/20 14:20:14;;;;;;;0.10;0.10;;;8.30;99.90;;;;;;10379029;28;20548;-66
2022/02/20 14:25:18;;;;;;;0.55;0.20;;;8.30;99.90;;;;;;10394939;28;20065;-67
2022/02/20 14:30:33;;;;;;;0.85;0.10;;;8.30;99.90;;;;;;10379860;28;20396;-67
2022/02/20 14:35:38;;;;;;;0.90;0.30;;;8.30;99.90;;;;;;10368764;28;20061;-67
2022/02/20 14:40:41;;;;;;;0.52;0.20;;;8.30;99.90;;;;;;10381789;28;20049;-66
2022/02/20 14:45:43;;;;;;;0.95;0.32;;;8.20;99.90;;;;;;10386233;28;20554;-67
2022/02/20 14:50:45;;;;;;;0.45;0.20;;;8.10;99.90;;;;;;10377990;28;20381;-70
2022/02/20 14:55:47;;;;;;;0.80;0.20;;;8.10;99.90;;;;;;10381520;28;20061;-68
2022/02/20 15:00:49;;;;;;;0.40;0.10;;;8.10;99.90;;;;;;10383324;28;20100;-68
2022/02/20 15:05:51;;;;;;;0.40;0.20;;;8.00;99.90;;;;;;10380433;28;20431;-68
2022/02/20 15:10:53;;;;;;;0.35;0.10;;;8.00;99.90;;;;;;10379319;28;20146;-67
2022/02/20 15:15:54;;;;;;;0.40;0.17;;;8.00;99.90;;;;;;10384182;28;20475;-68
2022/02/20 15:20:56;;;;;;;0.20;0.10;;;8.00;99.90;;;;;;10374593;28;20057;-67
2022/02/20 15:25:59;;;;;;;0.73;0.73;;;8.10;99.90;;;;;;10384801;28;20125;-67
2022/02/20 15:31:02;;;;;;;0.45;0.10;;;8.10;99.90;;;;;;10373640;28;20053;-68
2022/02/20 15:36:04;;;;;;;0.55;0.10;;;8.10;99.90;;;;;;10359872;28;20096;-70
2022/02/20 15:41:05;;;;;;;0.10;0.10;;;8.20;99.90;;;;;;10378917;28;20045;-69
2022/02/20 15:46:07;;;;;;;0.40;0.20;;;8.30;99.90;;;;;;10379914;28;20041;-69
2022/02/20 15:51:09;;;;;;;2.22;0.60;;;8.30;99.90;;;;;;10384331;28;20637;-69
2022/02/20 15:56:10;;;;;;;2.20;0.20;;;8.30;99.90;;;;;;10375956;28;20056;-68
2022/02/20 16:01:12;;;;;;;0.68;0.20;;;8.40;99.90;;;;;;10383188;28;20099;-67
2022/02/20 16:06:14;;;;;;;2.05;0.20;;;8.40;99.90;;;;;;10382993;28;20095;-68
2022/02/20 16:11:16;;;;;;;2.28;0.20;;;8.50;99.90;;;;;;10388048;28;20104;-69
2022/02/20 16:16:18;;;;;;;2.70;0.40;;;8.50;99.90;;;;;;10387942;28;20049;-68
2022/02/20 16:21:20;;;;;;;2.88;0.20;;;8.50;99.90;;;;;;10386334;28;20065;-71
2022/02/20 16:26:22;;;;;;;1.02;0.20;;;8.50;99.90;;;;;;10386012;28;20874;-69
2022/02/20 16:31:26;;;;;;;0.47;0.30;;;8.60;99.90;;;;;;10389955;28;20088;-68
2022/02/20 16:36:27;;;;;;;1.77;0.28;;;8.60;99.90;;;;;;10385572;28;20053;-68
2022/02/20 16:41:29;;;;;;;0.60;0.20;;;8.60;99.90;;;;;;10390855;28;20042;-69
2022/02/20 16:46:34;;;;;;;2.63;0.40;;;8.60;99.90;;;;;;10390812;28;20049;-69
2022/02/20 16:51:36;;;;;;;1.83;0.30;;;8.60;99.90;;;;;;10386876;28;20053;-69
2022/02/20 16:56:38;;;;;;;2.13;0.30;;;8.60;99.90;;;;;;10389153;28;20087;-69
2022/02/20 17:01:40;;;;;;;2.25;0.38;;;8.60;99.90;;;;;;10386382;28;20045;-69
2022/02/20 17:06:42;;;;;;;0.80;0.40;;;8.60;99.90;;;;;;10389272;28;20068;-69
2022/02/20 17:11:43;;;;;;;1.95;0.40;;;8.60;99.90;;;;;;10384430;28;20109;-69
2022/02/20 17:16:45;;;;;;;3.97;0.40;;;8.70;99.90;;;;;;10386748;28;20056;-62
2022/02/20 17:21:47;;;;;;;2.13;0.30;;;8.70;99.90;;;;;;10381505;28;20132;-61
2022/02/20 17:26:49;;;;;;;0.70;0.22;;;8.80;99.90;;;;;;10385141;28;20759;-62
2022/02/20 17:31:51;;;;;;;6.38;0.40;;;8.80;99.90;;;;;;10383751;28;20108;-62
2022/02/20 17:36:56;;;;;;;2.63;0.20;;;8.80;99.90;;;;;;10383461;28;20103;-61
2022/02/20 17:41:57;;;;;;;2.85;0.30;;;8.80;99.90;;;;;;10387118;28;20073;-62
2022/02/20 17:47:02;;;;;;;3.45;0.50;;;8.70;99.90;;;;;;10377745;28;20073;-61
2022/02/20 17:52:04;;;;;;;1.60;0.40;;;8.70;99.90;;;;;;10385234;28;20099;-61
2022/02/20 17:57:05;;;;;;;2.78;0.60;;;8.70;99.90;;;;;;10382327;28;20473;-62
2022/02/20 18:02:09;;;;;;;4.20;0.40;;;8.60;99.90;;;;;;10381079;28;20056;-62
2022/02/20 18:07:12;;;;;;;5.15;0.50;;;8.60;99.90;;;;;;10388856;28;20065;-61
2022/02/20 18:12:15;;;;;;;5.10;0.70;;;8.60;99.90;;;;;;10382766;28;20520;-61
2022/02/20 18:17:16;;;;;;;1.40;0.57;;;8.60;99.90;;;;;;10383519;28;20084;-62
2022/02/20 18:22:20;;;;;;;2.38;0.40;;;8.60;99.90;;;;;;10382835;28;20069;-61
2022/02/20 18:27:22;;;;;;;4.32;0.40;;;8.60;99.90;;;;;;10377977;28;20041;-62
2022/02/20 18:32:23;;;;;;;2.00;0.30;;;8.50;99.90;;;;;;10385360;28;20123;-61
2022/02/20 18:37:25;;;;;;;5.97;0.73;;;8.50;99.90;;;;;;10387039;28;20077;-61
2022/02/20 18:42:27;;;;;;;1.00;0.40;;;8.50;99.90;;;;;;10384371;28;20151;-62
2022/02/20 18:47:29;;;;;;;1.95;0.25;;;8.50;99.90;;;;;;10386174;28;20127;-63
2022/02/20 18:52:31;;;;;;;6.03;0.38;;;8.50;99.90;;;;;;10378776;28;20064;-61
2022/02/20 18:57:33;;;;;;;2.25;0.40;;;8.50;99.90;;;;;;10392942;28;20040;-61
2022/02/20 19:02:35;;;;;;;1.60;0.30;;;8.50;99.90;;;;;;10394241;28;20046;-61
2022/02/20 19:07:37;;;;;;;0.20;0.17;;;8.50;99.90;;;;;;10374763;28;20446;-61
2022/02/20 19:12:39;;;;;;;0.43;0.20;;;8.50;99.90;;;;;;10376722;28;20049;-62
2022/02/20 19:17:45;;;;;;;0.28;0.20;;;8.60;99.90;;;;;;10383760;28;20049;-61
2022/02/20 19:22:47;;;;;;;0.95;0.17;;;8.60;99.90;;;;;;10378905;28;20045;-61
2022/02/20 19:27:48;;;;;;;0.50;0.10;;;8.60;99.90;;;;;;10382133;28;20073;-62
2022/02/20 19:32:50;;;;;;;1.63;0.20;;;8.60;99.90;;;;;;10383549;28;20049;-61
2022/02/20 19:37:52;;;;;;;1.98;0.20;;;8.70;99.90;;;;;;10382655;28;20076;-60
2022/02/20 19:42:54;;;;;;;0.50;0.20;;;8.70;99.90;;;;;;10386694;28;20065;-61
2022/02/20 19:47:55;;;;;;;0.30;0.10;;;8.70;99.90;;;;;;10389045;28;20110;-62
2022/02/20 19:52:57;;;;;;;0.75;0.20;;;8.70;99.90;;;;;;10386394;28;20566;-61
2022/02/20 19:57:59;;;;;;;0.40;0.20;;;8.80;99.90;;;;;;10390144;28;20566;-61
2022/02/20 20:03:01;;;;;;;0.30;0.17;;;8.80;99.90;;;;;;10360700;28;20049;-61
2022/02/20 20:08:06;;;;;;;1.70;0.17;;;8.90;99.90;;;;;;10387992;28;20200;-62
2022/02/20 20:13:08;;;;;;;1.38;0.30;;;9.10;99.90;;;;;;10382179;28;20053;-62
2022/02/20 20:18:10;;;;;;;2.03;0.30;;;9.10;99.90;;;;;;10382349;28;20520;-61
2022/02/20 20:23:12;;;;;;;2.95;0.47;;;9.10;99.90;;;;;;10384795;28;20377;-61
2022/02/20 20:28:14;;;;;;;0.85;0.20;;;9.20;99.90;;;;;;10385853;28;20091;-61
2022/02/20 20:33:16;;;;;;;1.15;0.30;;;9.20;99.90;;;;;;10384617;28;20124;-62
2022/02/20 20:38:18;;;;;;;1.50;0.30;;;9.20;99.90;;;;;;10386015;28;20111;-61
2022/02/20 20:43:19;;;;;;;0.90;0.30;;;9.20;99.90;;;;;;10384714;28;20170;-61
2022/02/20 20:48:21;;;;;;;4.97;0.30;;;9.20;99.90;;;;;;10387134;28;20088;-62
2022/02/20 20:53:23;;;;;;;6.45;0.60;;;9.20;99.90;;;;;;10386518;28;20128;-62
2022/02/20 20:58:25;;;;;;;1.60;0.32;;;9.30;99.90;;;;;;10385474;28;20124;-62
2022/02/20 21:03:27;;;;;;;1.42;0.30;;;9.40;99.90;;;;;;10389605;28;20072;-62
2022/02/20 21:08:29;;;;;;;0.77;0.30;;;9.40;99.90;;;;;;10385445;28;20403;-62
2022/02/20 21:13:30;;;;;;;4.53;0.38;;;9.40;99.90;;;;;;10379485;28;20104;-63
2022/02/20 21:18:32;;;;;;;3.17;0.57;;;9.50;99.90;;;;;;10383186;28;20077;-62
2022/02/20 21:23:34;;;;;;;2.33;0.30;;;9.50;99.90;;;;;;10383533;28;20069;-62
2022/02/20 21:28:36;;;;;;;1.73;0.20;;;9.50;99.90;;;;;;10382287;28;20069;-62
2022/02/20 21:33:37;;;;;;;3.08;0.20;;;9.50;99.90;;;;;;10384944;28;20111;-62
2022/02/20 21:38:39;;;;;;;1.83;0.32;;;9.50;99.90;;;;;;10383971;28;20116;-62
2022/02/20 21:43:41;;;;;;;5.15;0.43;;;9.50;99.90;;;;;;10386172;28;20052;-61
2022/02/20 21:48:43;;;;;;;2.80;0.28;;;9.60;99.90;;;;;;10385273;28;20041;-64
2022/02/20 21:53:45;;;;;;;6.22;0.30;;;9.60;99.90;;;;;;10385311;28;20037;-61
2022/02/20 21:58:49;;;;;;;1.98;0.73;;;9.60;99.90;;;;;;10386058;28;20446;-63
2022/02/20 22:03:50;;;;;;;1.23;0.80;;;9.70;99.90;;;;;;10382444;28;20407;-61
2022/02/20 22:08:52;;;;;;;0.40;0.10;;;9.80;99.90;;;;;;10386846;28;20550;-61
2022/02/20 22:13:53;;;;;;;1.75;0.40;;;9.70;99.90;;;;;;10376176;28;20107;-61
2022/02/20 22:18:56;;;;;;;4.45;0.38;;;9.70;99.90;;;;;;10377262;28;20294;-61
2022/02/20 22:23:57;;;;;;;2.97;0.20;;;9.80;99.90;;;;;;10378691;28;20084;-61
2022/02/20 22:28:59;;;;;;;0.30;0.10;;;9.70;99.90;;;;;;10379399;28;20127;-60
2022/02/20 22:34:04;;;;;;;1.92;0.30;;;9.80;99.90;;;;;;10381849;28;20068;-61
2022/02/20 22:39:05;;;;;;;1.27;0.13;;;9.80;99.90;;;;;;10384205;28;20498;-60
2022/02/20 22:44:08;;;;;;;0.75;0.20;;;9.70;99.90;;;;;;10380021;28;20143;-61
2022/02/20 22:49:10;;;;;;;1.67;0.22;;;9.60;99.90;;;;;;10378204;28;20455;-61
2022/02/20 22:54:12;;;;;;;3.40;0.40;;;9.50;99.90;;;;;;10378941;28;20483;-61
2022/02/20 22:59:14;;;;;;;1.80;0.60;;;9.50;99.90;;;;;;10377834;28;20084;-61
2022/02/20 23:04:16;;;;;;;0.88;0.30;;;9.40;99.90;;;;;;10380233;28;20489;-61
2022/02/20 23:09:17;;;;;;;2.83;0.20;;;9.30;99.90;;;;;;10386223;28;20048;-61
2022/02/20 23:14:19;;;;;;;3.22;0.63;;;9.30;99.90;;;;;;10383875;28;20155;-61
2022/02/20 23:19:21;;;;;;;7.57;1.05;;;9.40;99.90;;;;;;10386314;28;20049;-60
2022/02/20 23:24:24;;;;;;;2.47;0.17;;;9.40;99.90;;;;;;10384077;28;20057;-60
2022/02/20 23:29:26;;;;;;;2.58;0.30;;;9.40;99.90;;;;;;10378851;28;20038;-60
2022/02/20 23:34:28;;;;;;;1.52;0.45;;;9.40;99.90;;;;;;10391013;28;20088;-61
2022/02/20 23:39:30;;;;;;;8.95;0.80;;;9.50;99.90;;;;;;10392051;28;20408;-61
2022/02/20 23:44:31;;;;;;;0.63;0.25;;;9.50;99.90;;;;;;10391942;28;20045;-61
2022/02/20 23:49:33;;;;;;;5.80;0.40;;;9.60;99.90;;;;;;10393674;28;20050;-61
2022/02/20 23:54:35;;;;;;;6.13;0.30;;;9.70;99.90;;;;;;10386687;28;20045;-61
2022/02/20 23:59:37;;;;;;;0.45;0.10;;;9.80;99.90;;;;;;10386217;28;20476;-61
